Gakona, AK

10:56 AM AKDT on October 20, 2014 (GMT -0800)
Copper Bluff Subdivision | Change Station
CLOSE
Current Station
Personal Weather Station
Location: Gakona, AK
Elevation: 1625 ft
Nearby Weather Stations

Elev 1625 ft 62.29 °N, 145.34 °W | Updated 6 minutes ago

Overcast
Overcast
18.0 °F
Feels Like 18 °F
N
0.0
Wind Variable Wind from East
Gusts 0.0 mph

Today
High -- | Low -- °F
--% Chance of Precip.
Yesterday
High -- | Low -- °F
Precip. -- in
8:40 AM 6:10 PM
Waning Crescent, 9% visible
Pressure 29.17 in
Visibility 10.0 miles
Clouds Scattered Clouds 1100 ft
Overcast 11000 ft
Windchill 18 °F
Dew Point 16 °F
Humidity 93%
Rainfall 0.00 in
Snow Depth Not available.
UV 0.0 out of 12
Pollen Not available.
Air Quality Not available.
Flu Activity Sporadic
METAR PAGK 201853Z AUTO 00000KT 10SM SCT011 OVC110 M07/M08 A2906 RMK AO2 SLP876 I1000 T10671083 TSNO

More Conditions Fewer Conditions

Pressure 29.17 in
Visibility 10.0 miles
Clouds Scattered Clouds 1100 ft
Overcast 11000 ft
Windchill 18 °F
Dew Point 16 °F
Humidity 93%
Rainfall 0.00 in
Snow Depth Not available.
UV 0.0 out of 12
Pollen Not available.
Air Quality Not available.
Flu Activity Sporadic
METAR PAGK 201853Z AUTO 00000KT 10SM SCT011 OVC110 M07/M08 A2906 RMK AO2 SLP876 I1000 T10671083 TSNO

More Conditions Fewer Conditions

10-Day Weather Forecast

Almanac

Astronomy

Oct. 20, 2014 Rise Set
Actual Time 8:40 AM AKDT 6:10 PM AKDT
Civil Twilight 7:54 AM AKDT 6:56 PM AKDT
Nautical Twilight 7:02 AM AKDT 7:48 PM AKDT
Astronomical Twilight 6:10 AM AKDT 8:40 PM AKDT
Moon 4:45 AM AKDT 5:21 PM AKDT
Length of Visible Light 11h 02m
Length of Day
9h 29m
Waning Crescent, 9% of the Moon is Illuminated
Today
Waning Crescent
Oct 23
New
Oct 30
First Quarter
Nov 6
Full
Nov 14
Last Quarter

Today's Extremes

State Highs State Lows

Community

WunderPhotos

Upload Photos

1,763,463 photos uploaded!

Nearby

Snow Depth

Station Depth Elevation
Upper Tsaina River 7 in 1750 ft
Granite Creek 6 in 1240 ft
Moraine 0 in 2100 ft
Susitna Valley High 0 in 375 ft
Indian Pass 8 in 2300 ft

Earthquake Activity

City Distance Mag. Time & Date
No recent earthquake activity has been reported nearby.
Minimum magnitude displayed is 2.5.

Coastal Water Temperatures

Place Temperature
No Stations Reporting

Nearby Weather Stations